Time;durP1;ratioP1;P1;durP2;ratioP2;P2;SDS_P1;SDS_P2;PMS_P1;PMS_P2;Temp;Humidity;BMP_temperature;BMP_pressure;BME280_temperature;BME280_humidity;BME280_pressure;Samples;Min_cycle;Max_cycle;Signal;HPM_P1;HPM_P2
2022/08/28 00:01:03;;;;;;;5.87;2.23;;;16.80;99.90;;;;;;5051924;28;20252;-59
2022/08/28 00:03:31;;;;;;;5.73;2.13;;;16.80;99.90;;;;;;5051923;28;20643;-59
2022/08/28 00:05:58;;;;;;;8.23;2.13;;;16.70;99.90;;;;;;5051647;28;20739;-58
2022/08/28 00:08:27;;;;;;;5.07;2.17;;;16.70;99.90;;;;;;5051795;28;20209;-57
2022/08/28 00:10:53;;;;;;;7.33;2.63;;;16.80;99.90;;;;;;5052019;28;20209;-55
2022/08/28 00:13:24;;;;;;;6.87;2.57;;;16.80;99.90;;;;;;5051564;28;20283;-54
2022/08/28 00:15:53;;;;;;;10.60;2.77;;;16.70;99.90;;;;;;5051597;28;20695;-54
2022/08/28 00:18:19;;;;;;;8.90;2.30;;;16.70;99.90;;;;;;5051790;28;20248;-55
2022/08/28 00:20:47;;;;;;;13.63;3.00;;;16.60;99.90;;;;;;5051563;28;20214;-56
2022/08/28 00:23:14;;;;;;;6.63;2.83;;;16.50;99.90;;;;;;5051568;28;20279;-58
2022/08/28 00:25:42;;;;;;;9.87;3.00;;;16.40;99.90;;;;;;5051627;28;20209;-57
2022/08/28 00:28:10;;;;;;;10.10;3.03;;;16.30;99.90;;;;;;5053971;28;20262;-59
2022/08/28 00:30:40;;;;;;;7.53;2.47;;;16.40;99.90;;;;;;5055667;28;20204;-59
2022/08/28 00:33:09;;;;;;;6.70;2.83;;;16.30;99.90;;;;;;5055560;28;20229;-59
2022/08/28 00:35:37;;;;;;;5.80;2.57;;;16.30;99.90;;;;;;5055496;28;20230;-59
2022/08/28 00:38:04;;;;;;;5.77;2.37;;;16.30;99.90;;;;;;5055371;28;20201;-59
2022/08/28 00:40:32;;;;;;;9.90;2.60;;;16.20;99.90;;;;;;5054833;28;20300;-59
2022/08/28 00:43:00;;;;;;;6.20;2.77;;;16.10;99.90;;;;;;5055224;28;20647;-60
2022/08/28 00:45:27;;;;;;;5.53;2.50;;;16.10;99.90;;;;;;5055329;28;20352;-59
2022/08/28 00:47:54;;;;;;;8.20;3.47;;;16.10;99.90;;;;;;5055191;28;20205;-60
2022/08/28 00:50:24;;;;;;;7.23;2.70;;;16.10;1.00;;;;;;5055372;28;20255;-59
2022/08/28 00:52:54;;;;;;;6.60;3.10;;;16.10;1.00;;;;;;5055259;28;20263;-59
2022/08/28 00:55:24;;;;;;;7.93;3.63;;;16.00;1.00;;;;;;5055027;28;20630;-59
2022/08/28 00:57:53;;;;;;;10.93;3.03;;;15.90;1.00;;;;;;5055130;28;20260;-60
2022/08/28 01:00:25;;;;;;;8.03;2.97;;;15.90;1.00;;;;;;5055129;28;20268;-59
2022/08/28 01:02:52;;;;;;;7.57;3.20;;;15.80;1.00;;;;;;5055144;28;20272;-59
2022/08/28 01:05:19;;;;;;;9.20;3.17;;;15.90;7.80;;;;;;5055106;28;20210;-58
2022/08/28 01:07:46;;;;;;;8.80;2.93;;;15.90;99.90;;;;;;5054694;28;20205;-59
2022/08/28 01:10:17;;;;;;;7.97;2.80;;;15.80;99.90;;;;;;5055052;28;20255;-60
2022/08/28 01:12:45;;;;;;;6.33;2.60;;;15.80;99.90;;;;;;5054918;28;20205;-60
2022/08/28 01:15:16;;;;;;;10.67;3.27;;;15.70;99.90;;;;;;5054906;28;20263;-58
2022/08/28 01:17:47;;;;;;;5.33;3.00;;;15.70;99.90;;;;;;5054701;28;20237;-56
2022/08/28 01:20:19;;;;;;;10.90;3.00;;;15.70;99.90;;;;;;5053842;28;20225;-59
2022/08/28 01:22:53;;;;;;;7.37;2.83;;;15.60;99.90;;;;;;5053633;28;20206;-59
2022/08/28 01:25:23;;;;;;;7.27;3.33;;;15.50;1.00;;;;;;5053436;28;20206;-60
2022/08/28 01:27:50;;;;;;;8.90;3.13;;;15.50;1.00;;;;;;5053486;28;20260;-59
2022/08/28 01:30:20;;;;;;;7.30;3.07;;;15.50;1.00;;;;;;5053507;28;20202;-59
2022/08/28 01:32:50;;;;;;;10.73;3.70;;;15.50;15.10;;;;;;5053093;28;20209;-59
2022/08/28 01:35:19;;;;;;;12.80;3.93;;;15.50;99.90;;;;;;5053568;28;20206;-59
2022/08/28 01:37:46;;;;;;;9.80;3.10;;;15.50;99.90;;;;;;5052455;28;20738;-59
2022/08/28 01:40:23;;;;;;;10.67;3.63;;;15.40;99.90;;;;;;5053070;28;20279;-58
2022/08/28 01:42:51;;;;;;;6.87;3.30;;;15.40;1.00;;;;;;5053060;28;20721;-59
2022/08/28 01:45:20;;;;;;;10.87;3.33;;;15.40;1.00;;;;;;5053164;28;20263;-58
2022/08/28 01:47:47;;;;;;;9.03;3.27;;;15.40;1.00;;;;;;5053055;28;20206;-59
2022/08/28 01:50:16;;;;;;;10.80;3.53;;;15.40;1.00;;;;;;5053235;28;20197;-59
2022/08/28 01:52:43;;;;;;;8.80;3.43;;;15.30;94.40;;;;;;5053004;28;20213;-60
2022/08/28 01:55:11;;;;;;;10.70;3.50;;;15.30;99.90;;;;;;5052989;28;20642;-59
2022/08/28 01:57:43;;;;;;;9.00;3.30;;;15.30;99.90;;;;;;5052605;28;20213;-59
2022/08/28 02:00:13;;;;;;;16.23;4.23;;;15.20;1.00;;;;;;5052782;28;20230;-58
2022/08/28 02:02:39;;;;;;;8.80;3.60;;;15.00;99.90;;;;;;5053313;28;20620;-57
2022/08/28 02:05:07;;;;;;;12.47;3.43;;;15.10;1.00;;;;;;5053007;28;20271;-57
2022/08/28 02:07:34;;;;;;;9.93;3.57;;;15.00;1.00;;;;;;5052494;28;20201;-55
2022/08/28 02:10:01;;;;;;;7.50;3.57;;;15.00;99.90;;;;;;5052853;28;20280;-55
2022/08/28 02:12:28;;;;;;;7.90;3.27;;;15.00;1.00;;;;;;5052669;28;20209;-59
2022/08/28 02:14:55;;;;;;;12.67;3.87;;;15.00;75.30;;;;;;5052811;28;20275;-58
2022/08/28 02:17:23;;;;;;;11.40;3.63;;;14.90;99.90;;;;;;5052515;28;20252;-60
2022/08/28 02:19:50;;;;;;;10.07;3.53;;;14.80;1.00;;;;;;5016825;28;1039711;-59
2022/08/28 02:22:17;;;;;;;9.27;3.33;;;14.80;99.90;;;;;;5053542;28;20243;-59
2022/08/28 02:24:44;;;;;;;12.17;3.60;;;14.80;99.90;;;;;;5053364;28;20286;-59
2022/08/28 02:27:10;;;;;;;8.77;3.40;;;14.70;1.00;;;;;;5053162;28;20288;-58
2022/08/28 02:29:38;;;;;;;11.73;3.77;;;14.70;99.90;;;;;;5053409;28;20267;-60
2022/08/28 02:32:05;;;;;;;11.87;3.93;;;14.60;99.90;;;;;;5053447;28;20255;-57
2022/08/28 02:34:33;;;;;;;9.80;3.67;;;14.60;1.00;;;;;;5053233;28;20229;-59
2022/08/28 02:37:00;;;;;;;12.07;3.87;;;14.50;99.90;;;;;;5053196;28;20206;-57
2022/08/28 02:39:27;;;;;;;10.07;4.00;;;14.50;99.90;;;;;;5053017;28;20651;-59
2022/08/28 02:41:53;;;;;;;12.73;3.73;;;14.50;99.90;;;;;;5053462;28;20209;-60
2022/08/28 02:44:20;;;;;;;8.30;3.77;;;14.50;1.00;;;;;;5053138;28;20225;-58
2022/08/28 02:46:46;;;;;;;12.67;4.30;;;14.40;1.00;;;;;;5053050;28;20343;-59
2022/08/28 02:49:13;;;;;;;6.90;3.47;;;14.40;1.00;;;;;;5052623;28;20620;-59
2022/08/28 02:51:41;;;;;;;10.93;3.60;;;14.40;1.00;;;;;;5052869;28;20558;-59
2022/08/28 02:54:08;;;;;;;10.70;3.63;;;14.40;1.00;;;;;;5052710;28;20229;-60
2022/08/28 02:56:34;;;;;;;11.03;4.07;;;14.40;1.00;;;;;;5052867;28;20236;-59
2022/08/28 02:59:01;;;;;;;11.17;3.70;;;14.30;65.70;;;;;;5052853;28;20267;-59
2022/08/28 03:01:28;;;;;;;10.20;3.93;;;14.30;99.90;;;;;;5052939;28;20280;-58
2022/08/28 03:03:54;;;;;;;9.87;4.00;;;14.30;99.90;;;;;;5052689;28;20708;-58
2022/08/28 03:06:21;;;;;;;12.33;3.93;;;14.30;99.90;;;;;;5052323;28;20205;-58
2022/08/28 03:08:49;;;;;;;10.97;4.10;;;14.20;99.90;;;;;;5052494;28;20217;-59
2022/08/28 03:11:16;;;;;;;8.53;3.97;;;14.10;99.90;;;;;;5052772;28;20213;-59
2022/08/28 03:13:43;;;;;;;12.77;4.87;;;14.10;99.90;;;;;;5052680;28;20276;-59
2022/08/28 03:16:09;;;;;;;12.03;4.10;;;14.10;99.90;;;;;;5052403;28;20220;-59
2022/08/28 03:18:37;;;;;;;11.70;4.27;;;14.10;99.90;;;;;;5052622;28;20657;-59
2022/08/28 03:21:04;;;;;;;14.93;4.63;;;14.00;99.90;;;;;;5052198;28;20550;-58
2022/08/28 03:23:30;;;;;;;9.20;4.47;;;14.00;99.90;;;;;;5052219;28;20636;-58
2022/08/28 03:26:01;;;;;;;9.20;3.70;;;14.00;99.90;;;;;;5052356;28;20216;-59
2022/08/28 03:28:31;;;;;;;11.37;3.93;;;14.00;99.90;;;;;;5052423;28;20213;-58
2022/08/28 03:30:58;;;;;;;12.57;3.90;;;13.90;99.90;;;;;;5052372;28;20205;-58
2022/08/28 03:33:25;;;;;;;11.53;4.20;;;13.90;99.90;;;;;;5052166;28;20236;-58
2022/08/28 03:35:51;;;;;;;9.27;3.70;;;13.90;99.90;;;;;;5052084;28;20254;-58
2022/08/28 03:38:18;;;;;;;11.17;3.43;;;13.90;99.90;;;;;;5052290;28;20209;-58
2022/08/28 03:40:46;;;;;;;11.10;3.70;;;13.90;99.90;;;;;;5051884;28;20273;-58
2022/08/28 03:43:17;;;;;;;10.73;4.23;;;14.00;99.90;;;;;;5052049;28;20229;-58
2022/08/28 03:45:52;;;;;;;9.43;3.80;;;14.00;99.90;;;;;;5052089;28;20212;-59
2022/08/28 03:48:19;;;;;;;10.00;3.70;;;14.00;99.90;;;;;;5052066;28;20215;-59
2022/08/28 03:50:46;;;;;;;11.27;4.20;;;14.00;99.90;;;;;;5052165;28;20200;-59
2022/08/28 03:53:13;;;;;;;15.73;4.70;;;14.10;99.90;;;;;;5052042;28;20279;-58
2022/08/28 03:55:40;;;;;;;7.13;3.40;;;14.00;99.90;;;;;;5051937;28;20311;-58
2022/08/28 03:58:07;;;;;;;10.73;3.40;;;14.10;99.90;;;;;;5051780;28;20208;-59
2022/08/28 04:00:36;;;;;;;11.03;3.40;;;14.10;99.90;;;;;;5051864;28;20229;-59
2022/08/28 04:03:03;;;;;;;10.33;3.50;;;14.20;99.90;;;;;;5051576;28;20233;-57
2022/08/28 04:05:30;;;;;;;7.53;3.57;;;14.20;99.90;;;;;;5052059;28;20212;-57
2022/08/28 04:07:57;;;;;;;10.20;4.03;;;14.30;99.90;;;;;;5051579;28;20262;-55
2022/08/28 04:10:24;;;;;;;12.43;3.43;;;14.30;99.90;;;;;;5051830;28;20206;-55
2022/08/28 04:12:50;;;;;;;12.60;4.13;;;14.30;99.90;;;;;;5051630;28;20205;-53
2022/08/28 04:15:17;;;;;;;5.57;3.10;;;14.30;99.90;;;;;;5051706;28;20208;-53
2022/08/28 04:17:45;;;;;;;9.97;3.80;;;14.40;99.90;;;;;;5051639;28;20244;-55
2022/08/28 04:20:12;;;;;;;11.20;3.97;;;14.40;99.90;;;;;;5051505;28;20279;-54
2022/08/28 04:22:39;;;;;;;6.67;3.20;;;14.30;99.90;;;;;;5051560;28;20258;-54
2022/08/28 04:25:06;;;;;;;9.43;3.40;;;14.30;99.90;;;;;;5051647;28;20216;-53
2022/08/28 04:27:33;;;;;;;7.77;3.37;;;14.30;99.90;;;;;;5051399;28;20206;-54
2022/08/28 04:30:00;;;;;;;8.00;2.57;;;14.40;99.90;;;;;;5051483;28;20307;-52
2022/08/28 04:32:27;;;;;;;10.87;2.93;;;14.40;99.90;;;;;;5051668;28;20209;-54
2022/08/28 04:34:55;;;;;;;11.40;3.30;;;14.40;99.90;;;;;;5051660;28;20308;-51
2022/08/28 04:37:22;;;;;;;10.57;3.97;;;14.40;99.90;;;;;;5051368;28;20210;-57
2022/08/28 04:39:48;;;;;;;14.77;3.73;;;14.40;99.90;;;;;;5051385;28;20231;-54
2022/08/28 04:42:15;;;;;;;11.20;3.60;;;14.40;99.90;;;;;;5051546;28;20209;-53
2022/08/28 04:44:42;;;;;;;10.40;3.67;;;14.40;99.90;;;;;;5051131;28;20303;-50
2022/08/28 04:47:08;;;;;;;9.40;3.73;;;14.40;99.90;;;;;;5051318;28;20206;-53
2022/08/28 04:49:36;;;;;;;8.83;3.37;;;14.40;99.90;;;;;;5051503;28;20208;-56
2022/08/28 04:52:05;;;;;;;11.30;3.70;;;14.40;99.90;;;;;;5051392;28;20209;-57
2022/08/28 04:54:33;;;;;;;8.47;2.90;;;14.40;99.90;;;;;;5050942;28;20642;-58
2022/08/28 04:56:59;;;;;;;10.03;3.87;;;14.40;99.90;;;;;;5050997;28;20209;-56
2022/08/28 04:59:26;;;;;;;9.17;3.20;;;14.40;99.90;;;;;;5051400;28;20213;-56
2022/08/28 05:01:53;;;;;;;5.27;2.63;;;14.30;99.90;;;;;;5051826;28;20724;-58
2022/08/28 05:04:20;;;;;;;10.87;3.43;;;14.30;99.90;;;;;;5051294;28;20290;-59
2022/08/28 05:06:47;;;;;;;7.20;3.10;;;14.30;99.90;;;;;;5051095;28;20251;-59
2022/08/28 05:09:18;;;;;;;6.30;3.00;;;14.30;99.90;;;;;;5051200;28;20561;-59
2022/08/28 05:11:46;;;;;;;7.83;3.23;;;14.30;99.90;;;;;;5051293;28;20208;-57
2022/08/28 05:14:14;;;;;;;9.07;3.10;;;14.30;99.90;;;;;;5053872;28;20221;-57
2022/08/28 05:16:42;;;;;;;10.13;3.10;;;14.20;99.90;;;;;;5054642;28;20217;-56
2022/08/28 05:19:10;;;;;;;11.07;3.67;;;14.30;99.90;;;;;;5054745;28;20305;-56
2022/08/28 05:21:38;;;;;;;7.47;2.90;;;14.30;99.90;;;;;;5054668;28;20271;-58
2022/08/28 05:24:06;;;;;;;6.70;3.13;;;14.20;99.90;;;;;;5054571;28;20606;-58
2022/08/28 05:26:36;;;;;;;7.10;3.23;;;14.30;99.90;;;;;;5054514;28;20209;-57
2022/08/28 05:29:03;;;;;;;9.57;3.60;;;14.30;99.90;;;;;;5054929;28;20208;-58
2022/08/28 05:31:31;;;;;;;7.87;3.27;;;14.20;99.90;;;;;;5054665;28;20201;-58
2022/08/28 05:34:00;;;;;;;8.93;3.97;;;14.30;99.90;;;;;;5054429;28;20708;-57
2022/08/28 05:36:28;;;;;;;10.27;3.37;;;14.30;99.90;;;;;;5054016;28;20217;-55
2022/08/28 05:38:56;;;;;;;12.57;3.30;;;14.30;99.90;;;;;;5054282;28;20275;-59
2022/08/28 05:41:25;;;;;;;11.03;3.00;;;14.40;99.90;;;;;;5054570;28;20226;-57
2022/08/28 05:43:54;;;;;;;11.03;2.83;;;14.50;99.90;;;;;;5053849;28;20253;-59
2022/08/28 05:46:22;;;;;;;9.47;3.23;;;14.50;99.90;;;;;;5053843;28;20205;-58
2022/08/28 05:48:49;;;;;;;10.83;3.37;;;14.60;99.90;;;;;;5054208;28;20232;-57
2022/08/28 05:51:17;;;;;;;9.33;3.23;;;14.70;99.90;;;;;;5054076;28;20289;-58
2022/08/28 05:53:44;;;;;;;14.23;3.37;;;14.70;99.90;;;;;;5054427;28;20788;-59
2022/08/28 05:56:13;;;;;;;10.57;3.20;;;14.80;99.90;;;;;;5054220;28;20256;-59
2022/08/28 05:58:40;;;;;;;7.47;3.20;;;14.80;99.90;;;;;;5054132;28;20855;-57
2022/08/28 06:01:11;;;;;;;11.67;3.20;;;14.70;99.90;;;;;;5054034;28;20217;-55
2022/08/28 06:03:39;;;;;;;7.83;2.83;;;14.80;99.90;;;;;;5053982;28;20222;-58
2022/08/28 06:06:07;;;;;;;8.53;2.97;;;14.80;99.90;;;;;;5053961;28;20206;-58
2022/08/28 06:08:34;;;;;;;8.63;2.90;;;14.90;99.90;;;;;;5054148;28;20206;-58
2022/08/28 06:11:01;;;;;;;10.70;2.90;;;14.90;99.90;;;;;;5053913;28;20578;-57
2022/08/28 06:13:28;;;;;;;11.13;2.93;;;15.00;99.90;;;;;;5053779;28;20225;-59
2022/08/28 06:15:55;;;;;;;8.90;2.70;;;15.00;99.90;;;;;;5053813;28;20212;-59
2022/08/28 06:18:24;;;;;;;12.17;3.30;;;15.10;99.90;;;;;;5053628;28;20293;-58
2022/08/28 06:20:51;;;;;;;8.00;2.80;;;15.20;67.60;;;;;;5053669;28;20280;-57
2022/08/28 06:23:20;;;;;;;10.83;3.00;;;15.20;1.00;;;;;;5053619;28;20732;-57
2022/08/28 06:25:48;;;;;;;8.10;2.50;;;15.10;1.00;;;;;;5052293;28;20216;-59
2022/08/28 06:28:17;;;;;;;9.40;3.00;;;15.00;20.80;;;;;;5053376;28;20213;-56
2022/08/28 06:30:44;;;;;;;7.10;2.63;;;15.00;51.50;;;;;;5053372;28;20251;-58
2022/08/28 06:33:15;;;;;;;12.17;2.73;;;15.00;1.00;;;;;;5053446;28;20671;-58
2022/08/28 06:35:44;;;;;;;5.00;2.33;;;15.10;1.00;;;;;;5053481;28;20232;-59
2022/08/28 06:38:11;;;;;;;7.17;2.70;;;15.10;1.00;;;;;;5052978;28;20263;-59
2022/08/28 06:40:40;;;;;;;7.53;2.67;;;15.30;1.00;;;;;;5053358;28;20221;-60
2022/08/28 06:43:06;;;;;;;7.07;2.50;;;15.30;99.90;;;;;;5053163;28;20253;-58
2022/08/28 06:45:34;;;;;;;10.77;3.17;;;15.50;1.00;;;;;;5053338;28;20206;-58
2022/08/28 06:48:01;;;;;;;7.77;2.40;;;15.40;1.00;;;;;;5052980;28;20680;-56
2022/08/28 06:50:27;;;;;;;8.27;2.60;;;15.40;99.90;;;;;;5053260;28;20201;-58
2022/08/28 06:52:56;;;;;;;6.83;2.40;;;15.40;1.00;;;;;;5053172;28;20714;-59
2022/08/28 06:55:23;;;;;;;4.70;2.30;;;15.50;99.90;;;;;;5053616;28;20348;-56
2022/08/28 06:57:49;;;;;;;5.20;2.20;;;15.50;1.00;;;;;;5052659;28;20263;-59
2022/08/28 07:00:16;;;;;;;7.90;2.70;;;15.50;93.40;;;;;;5053085;28;20209;-59
2022/08/28 07:02:43;;;;;;;8.57;2.67;;;15.60;1.00;;;;;;5053011;28;20235;-58
2022/08/28 07:05:09;;;;;;;10.27;2.40;;;15.80;99.90;;;;;;5052697;28;20216;-59
2022/08/28 07:07:36;;;;;;;3.27;1.40;;;15.90;99.90;;;;;;5052745;28;20240;-57
2022/08/28 07:10:05;;;;;;;6.13;2.07;;;15.80;99.90;;;;;;5052673;28;20664;-59
2022/08/28 07:12:32;;;;;;;5.03;1.90;;;15.80;11.20;;;;;;5052597;28;20275;-59
2022/08/28 07:14:59;;;;;;;12.37;2.97;;;15.70;1.00;;;;;;5052488;28;20664;-58
2022/08/28 07:17:25;;;;;;;9.00;2.20;;;15.80;99.90;;;;;;5052795;28;20615;-57
2022/08/28 07:19:52;;;;;;;7.63;2.70;;;15.80;15.50;;;;;;5052309;28;20688;-59
2022/08/28 07:22:18;;;;;;;10.47;2.33;;;15.90;99.90;;;;;;5052472;28;20270;-59
2022/08/28 07:24:45;;;;;;;7.73;1.97;;;15.90;1.00;;;;;;5052348;28;20271;-59
2022/08/28 07:27:13;;;;;;;5.70;2.10;;;15.90;1.00;;;;;;5052480;28;20217;-57
2022/08/28 07:29:40;;;;;;;5.93;2.20;;;16.00;1.00;;;;;;5052622;28;20206;-58
2022/08/28 07:32:07;;;;;;;9.30;2.40;;;16.10;99.90;;;;;;5052306;28;20202;-59
2022/08/28 07:34:39;;;;;;;7.27;2.10;;;16.10;99.90;;;;;;5052236;28;20261;-58
2022/08/28 07:37:06;;;;;;;5.50;2.07;;;16.20;99.90;;;;;;5051858;28;20296;-58
2022/08/28 07:39:34;;;;;;;7.10;2.10;;;16.30;53.50;;;;;;5052130;28;20212;-59
2022/08/28 07:42:01;;;;;;;10.00;2.20;;;16.30;1.00;;;;;;5052159;28;20235;-59
2022/08/28 07:47:13;;;;;;;7.83;2.30;;;16.20;99.90;;;;;;5052037;28;20275;-58
2022/08/28 07:49:40;;;;;;;10.03;2.20;;;16.30;1.00;;;;;;5052038;28;20214;-59
2022/08/28 07:52:08;;;;;;;6.37;2.33;;;16.40;99.90;;;;;;5052091;28;20205;-59
2022/08/28 07:54:36;;;;;;;5.70;2.30;;;16.50;99.90;;;;;;5052271;28;20229;-59
2022/08/28 07:57:02;;;;;;;8.80;2.20;;;16.70;1.00;;;;;;5052212;28;20218;-59
2022/08/28 07:59:31;;;;;;;7.20;2.17;;;16.80;99.90;;;;;;5052154;28;20205;-60
2022/08/28 08:01:57;;;;;;;7.47;2.30;;;17.00;76.20;;;;;;5050952;28;20646;-58
2022/08/28 08:04:24;;;;;;;12.70;2.00;;;16.90;1.00;;;;;;5051256;28;20261;-58
2022/08/28 08:06:52;;;;;;;4.27;1.97;;;16.80;1.00;;;;;;5051449;28;20259;-59
2022/08/28 08:09:19;;;;;;;9.40;2.03;;;16.80;1.00;;;;;;5052390;28;20205;-59
2022/08/28 08:11:48;;;;;;;5.47;1.83;;;16.70;1.00;;;;;;5051990;28;20622;-59
2022/08/28 08:14:16;;;;;;;6.17;1.87;;;16.80;1.00;;;;;;5052020;28;20275;-55
2022/08/28 08:16:45;;;;;;;7.63;1.87;;;16.90;99.90;;;;;;5051586;28;20209;-58
2022/08/28 08:19:13;;;;;;;9.93;2.13;;;16.70;99.90;;;;;;5051795;28;20267;-55
2022/08/28 08:21:41;;;;;;;6.97;1.90;;;16.60;1.00;;;;;;5051639;28;20225;-54
2022/08/28 08:24:08;;;;;;;5.40;1.97;;;16.60;1.00;;;;;;5051717;28;20256;-58
2022/08/28 08:26:34;;;;;;;7.20;2.40;;;16.30;99.90;;;;;;5051589;28;20252;-57
2022/08/28 08:29:01;;;;;;;13.20;2.17;;;16.40;1.00;;;;;;5051597;28;20250;-52
2022/08/28 08:31:31;;;;;;;7.50;2.03;;;16.80;99.90;;;;;;5051520;28;20201;-59
2022/08/28 08:34:01;;;;;;;6.57;1.77;;;17.20;99.90;;;;;;5051654;28;20228;-57
2022/08/28 08:36:29;;;;;;;6.97;2.23;;;17.50;1.00;;;;;;5051540;28;20296;-57
2022/08/28 08:38:57;;;;;;;5.40;2.13;;;17.90;1.00;;;;;;5050927;28;20623;-56
2022/08/28 08:41:29;;;;;;;9.90;2.13;;;18.30;99.90;;;;;;5050240;28;20287;-55
2022/08/28 08:43:59;;;;;;;5.17;1.67;;;18.70;99.90;;;;;;5051360;28;20226;-52
2022/08/28 08:46:32;;;;;;;4.57;1.53;;;18.60;99.90;;;;;;5051196;28;20201;-55
2022/08/28 08:49:02;;;;;;;9.63;2.40;;;18.40;99.90;;;;;;5054519;28;20202;-56
2022/08/28 08:51:41;;;;;;;7.17;2.20;;;17.90;99.90;;;;;;5056427;28;20202;-58
2022/08/28 08:54:12;;;;;;;5.87;2.00;;;17.50;99.90;;;;;;5056112;28;20229;-60
2022/08/28 08:56:41;;;;;;;6.67;2.10;;;17.50;99.90;;;;;;5055158;28;20351;-57
2022/08/28 08:59:13;;;;;;;8.53;1.97;;;17.30;99.90;;;;;;5055278;28;20730;-57
2022/08/28 09:01:46;;;;;;;11.20;2.30;;;17.40;99.90;;;;;;5055416;28;20229;-54
2022/08/28 09:04:25;;;;;;;4.50;1.90;;;17.40;99.90;;;;;;5055253;28;20287;-55
2022/08/28 09:06:56;;;;;;;4.53;2.03;;;17.40;99.90;;;;;;5054605;28;20213;-55
2022/08/28 09:09:29;;;;;;;12.07;2.10;;;17.40;99.90;;;;;;5055525;28;20267;-58
2022/08/28 09:11:59;;;;;;;5.37;2.00;;;17.40;99.90;;;;;;5054851;28;20209;-53
2022/08/28 09:14:35;;;;;;;4.93;2.00;;;17.60;99.90;;;;;;5055017;28;20230;-55
2022/08/28 09:17:03;;;;;;;4.30;1.67;;;17.70;99.90;;;;;;5054672;28;20205;-58
2022/08/28 09:19:31;;;;;;;8.57;2.67;;;17.90;99.90;;;;;;5054805;28;20221;-57
2022/08/28 09:21:58;;;;;;;6.43;2.77;;;18.10;99.90;;;;;;5054867;28;20226;-59
2022/08/28 09:24:27;;;;;;;9.20;2.37;;;18.40;99.90;;;;;;5054975;28;20229;-58
2022/08/28 09:26:57;;;;;;;6.83;1.97;;;18.70;99.90;;;;;;5054420;28;20656;-59
2022/08/28 09:29:27;;;;;;;8.93;2.20;;;18.80;99.90;;;;;;5054877;28;20205;-59
2022/08/28 09:31:54;;;;;;;12.57;1.93;;;18.90;99.90;;;;;;5054590;28;20210;-57
2022/08/28 09:34:26;;;;;;;10.33;1.80;;;19.10;99.90;;;;;;5054515;28;20628;-59
2022/08/28 09:36:55;;;;;;;6.40;1.80;;;19.20;99.90;;;;;;5054373;28;20209;-56
2022/08/28 09:39:25;;;;;;;6.53;1.77;;;19.20;99.90;;;;;;5054416;28;20212;-58
2022/08/28 09:44:55;;;;;;;8.00;1.87;;;19.20;99.90;;;;;;5054471;28;20315;-56
2022/08/28 09:47:42;;;;;;;6.17;1.60;;;19.40;99.90;;;;;;5054459;28;20245;-56
2022/08/28 09:50:31;;;;;;;5.30;1.83;;;19.50;99.90;;;;;;5054363;28;20205;-54
2022/08/28 09:53:15;;;;;;;4.80;1.83;;;19.30;99.90;;;;;;5049878;28;20297;-59
2022/08/28 09:56:04;;;;;;;7.67;1.90;;;19.30;99.90;;;;;;5054431;28;20252;-56
2022/08/28 09:58:34;;;;;;;4.23;1.90;;;19.10;99.90;;;;;;5053639;28;20255;-57
2022/08/28 10:01:10;;;;;;;5.23;1.57;;;19.20;99.90;;;;;;5054050;28;20239;-55
2022/08/28 10:03:44;;;;;;;10.27;1.80;;;19.10;99.90;;;;;;5054186;28;20278;-55
2022/08/28 10:06:18;;;;;;;6.80;2.03;;;19.20;99.90;;;;;;5052718;28;20267;-60
2022/08/28 10:09:00;;;;;;;7.70;2.07;;;19.40;99.90;;;;;;5065722;28;20205;-58
2022/08/28 10:11:32;;;;;;;5.50;2.10;;;19.80;99.90;;;;;;5073259;28;20201;-60
2022/08/28 10:14:10;;;;;;;9.63;1.80;;;20.10;99.90;;;;;;5073601;28;20224;-59
2022/08/28 10:16:45;;;;;;;8.53;2.20;;;20.20;99.90;;;;;;5074060;28;20215;-59
2022/08/28 10:19:22;;;;;;;5.03;2.17;;;20.20;99.90;;;;;;5073034;28;20259;-57
2022/08/28 10:21:57;;;;;;;5.03;2.03;;;19.30;99.90;;;;;;5073161;28;20225;-59
2022/08/28 10:24:42;;;;;;;5.50;1.50;;;19.30;99.90;;;;;;5073348;28;20228;-57
2022/08/28 10:27:16;;;;;;;3.83;1.67;;;19.30;99.90;;;;;;5072965;28;20633;-58
2022/08/28 10:29:52;;;;;;;3.70;1.70;;;19.30;99.90;;;;;;5072775;28;20270;-62
2022/08/28 10:32:45;;;;;;;6.13;2.07;;;19.40;99.90;;;;;;5073105;28;20205;-63
2022/08/28 10:35:15;;;;;;;6.80;1.80;;;19.50;99.90;;;;;;5072884;28;20740;-63
2022/08/28 10:37:54;;;;;;;4.67;1.50;;;19.60;99.90;;;;;;5072348;28;20236;-63
2022/08/28 10:40:27;;;;;;;3.77;1.90;;;19.90;99.90;;;;;;5053159;28;20247;-62
2022/08/28 10:43:00;;;;;;;4.93;1.73;;;20.10;99.90;;;;;;5053812;28;20240;-65
2022/08/28 10:45:30;;;;;;;4.47;1.60;;;20.30;99.90;;;;;;5069097;28;20205;-64
2022/08/28 10:48:00;;;;;;;7.50;1.90;;;20.30;99.90;;;;;;5071438;28;20240;-64
2022/08/28 10:50:30;;;;;;;8.10;1.90;;;20.50;99.90;;;;;;5072288;28;20204;-64
2022/08/28 10:53:01;;;;;;;4.43;1.50;;;20.40;99.90;;;;;;5072312;28;20221;-65
2022/08/28 10:55:37;;;;;;;5.17;1.43;;;20.30;99.90;;;;;;5071208;28;20286;-65
2022/08/28 10:58:06;;;;;;;3.97;1.60;;;20.30;99.90;;;;;;5071870;28;20337;-64
2022/08/28 11:00:34;;;;;;;4.40;1.60;;;20.30;99.90;;;;;;5071625;28;20213;-66
2022/08/28 11:03:06;;;;;;;3.00;1.20;;;20.30;99.90;;;;;;5072225;28;20240;-64
2022/08/28 11:05:37;;;;;;;4.00;1.50;;;20.40;99.90;;;;;;5071976;28;20212;-63
2022/08/28 11:08:08;;;;;;;5.27;1.63;;;20.70;99.90;;;;;;5071890;28;20258;-64
2022/08/28 11:10:47;;;;;;;6.23;2.03;;;20.60;99.90;;;;;;5071349;28;20898;-63
2022/08/28 11:13:43;;;;;;;4.40;1.37;;;20.70;99.90;;;;;;5068927;28;20327;-62
2022/08/28 11:16:16;;;;;;;5.07;1.50;;;20.70;99.90;;;;;;5071506;28;20201;-63
2022/08/28 11:19:10;;;;;;;5.93;1.50;;;21.00;99.90;;;;;;5072090;28;20208;-63
2022/08/28 11:21:44;;;;;;;4.67;1.77;;;21.10;99.90;;;;;;5071812;28;20205;-64
2022/08/28 11:24:30;;;;;;;4.13;1.53;;;21.30;99.90;;;;;;5072045;28;20273;-62
2022/08/28 11:27:11;;;;;;;6.20;1.60;;;21.30;99.90;;;;;;5071553;28;20212;-62
2022/08/28 11:30:15;;;;;;;4.17;1.50;;;21.10;99.90;;;;;;5071529;28;20679;-62
2022/08/28 11:33:03;;;;;;;5.87;1.63;;;21.10;99.90;;;;;;5064638;28;20556;-62
2022/08/28 11:35:49;;;;;;;4.13;1.50;;;20.80;99.90;;;;;;5071878;28;20209;-62
2022/08/28 11:38:53;;;;;;;5.43;1.80;;;20.70;99.90;;;;;;5070918;28;20215;-61
2022/08/28 11:41:25;;;;;;;4.17;1.63;;;20.50;99.90;;;;;;5071594;28;20262;-62
2022/08/28 11:44:41;;;;;;;6.70;1.93;;;20.80;99.90;;;;;;5071217;28;20224;-62
2022/08/28 11:47:43;;;;;;;3.07;1.33;;;20.90;99.90;;;;;;5071242;28;20629;-62
2022/08/28 11:50:21;;;;;;;5.20;1.70;;;21.00;99.90;;;;;;5071578;28;20286;-62
2022/08/28 11:53:25;;;;;;;3.50;1.10;;;21.30;99.90;;;;;;5071584;28;20201;-62
2022/08/28 11:56:08;;;;;;;5.70;1.57;;;21.40;99.90;;;;;;5047636;28;20212;-62
2022/08/28 11:58:43;;;;;;;4.23;1.20;;;21.60;99.90;;;;;;5071493;28;20667;-61
2022/08/28 12:01:13;;;;;;;5.40;1.47;;;21.70;99.90;;;;;;5071736;28;20620;-62
2022/08/28 12:03:43;;;;;;;5.93;1.40;;;21.40;99.90;;;;;;5071439;28;20232;-62
2022/08/28 12:06:12;;;;;;;4.00;1.60;;;21.40;99.90;;;;;;5071301;28;20588;-62
2022/08/28 12:09:03;;;;;;;3.27;1.33;;;21.40;99.90;;;;;;5069768;28;20699;-62
2022/08/28 12:11:55;;;;;;;4.73;1.40;;;21.60;99.90;;;;;;5065343;28;20701;-62
2022/08/28 12:15:02;;;;;;;3.10;1.47;;;21.60;99.90;;;;;;5071487;28;20233;-62
2022/08/28 12:17:46;;;;;;;6.33;2.00;;;21.40;99.90;;;;;;5070744;28;20799;-62
2022/08/28 12:20:22;;;;;;;4.50;1.37;;;21.60;99.90;;;;;;5071102;28;20213;-62
2022/08/28 12:22:52;;;;;;;4.87;1.70;;;21.50;99.90;;;;;;5071913;28;20229;-62
2022/08/28 12:25:26;;;;;;;6.07;1.70;;;21.60;99.90;;;;;;5076104;28;20212;-62
2022/08/28 12:27:53;;;;;;;5.27;1.40;;;21.60;99.90;;;;;;5062320;28;20242;-61
2022/08/28 12:30:28;;;;;;;4.00;1.50;;;21.70;99.90;;;;;;5075272;28;20201;-62
2022/08/28 12:33:09;;;;;;;4.67;1.30;;;21.40;99.90;;;;;;5074979;28;20224;-62
2022/08/28 12:35:36;;;;;;;5.13;1.70;;;21.50;99.90;;;;;;5075436;28;20592;-62
2022/08/28 12:38:05;;;;;;;3.40;1.80;;;21.30;99.90;;;;;;5074964;28;20204;-62
2022/08/28 12:40:48;;;;;;;4.27;1.30;;;21.60;99.90;;;;;;5075059;28;20208;-62
2022/08/28 12:43:23;;;;;;;2.93;1.40;;;21.50;99.90;;;;;;5074416;28;20302;-62
2022/08/28 12:45:53;;;;;;;2.90;1.40;;;21.20;99.90;;;;;;5075056;28;20620;-62
2022/08/28 12:48:24;;;;;;;5.37;1.50;;;21.40;99.90;;;;;;5075232;28;20229;-62
2022/08/28 12:50:59;;;;;;;3.33;1.10;;;21.40;99.90;;;;;;5075432;28;20205;-62
2022/08/28 12:53:26;;;;;;;4.90;1.67;;;21.50;99.90;;;;;;5074669;28;20289;-62
2022/08/28 12:55:53;;;;;;;2.30;1.03;;;21.50;99.90;;;;;;5074911;28;20205;-62
2022/08/28 12:58:31;;;;;;;2.93;1.30;;;21.50;99.90;;;;;;5074761;28;20208;-62
2022/08/28 13:01:00;;;;;;;3.60;1.20;;;21.50;99.90;;;;;;5075173;28;20205;-61
2022/08/28 13:03:31;;;;;;;1.97;1.10;;;21.40;99.90;;;;;;5074578;28;20229;-62
2022/08/28 13:06:03;;;;;;;4.30;1.20;;;21.60;99.90;;;;;;5074590;28;20205;-62
2022/08/28 13:08:31;;;;;;;4.13;1.40;;;21.90;99.90;;;;;;5074654;28;20201;-61